Pennington Gap, Virginia
Current Conditions -  °F | °C
As of 12:35 PM on Friday 31 Oct 2014 (Local Time) from K0VG Reporting Station
Light Rain Light Rain  
Wind Chill: 46°   Ceiling: Unl
Heat Index: 46°   Visibility: 8mi
Dew Point: 41°   Wind: 0mph
Humidity: 81%   Direction: NA
Pressure: 29.96"   Gusts: NA
Location:  36.76°N, 83.03°W
Report Text: K0VG 311635Z AUTO 00000KT 8SM -RA CLR 08/05 A2996 RMK AO2
Loading
Personal Weather Stations






























Interactive Weather Map
Tropical Storm Tracking
New forecast layout! Learn more

10-Day Weather Forecast

Advertisements
Track Severe Weather on mobile